Time;durP1;ratioP1;P1;durP2;ratioP2;P2;SDS_P1;SDS_P2;PMS_P1;PMS_P2;Temp;Humidity;BMP_temperature;BMP_pressure;BME280_temperature;BME280_humidity;BME280_pressure;Samples;Min_cycle;Max_cycle;Signal;HPM_P1;HPM_P2
2022/05/14 00:01:09;;;;;;;8.77;4.23;;;16.00;81.40;;;;;;5071884;28;20556;-53
2022/05/14 00:03:38;;;;;;;8.87;4.43;;;15.90;81.40;;;;;;5071093;28;20446;-52
2022/05/14 00:06:07;;;;;;;7.47;3.40;;;15.20;80.90;;;;;;5071690;28;20483;-52
2022/05/14 00:08:36;;;;;;;5.70;4.23;;;15.40;81.10;;;;;;5071020;28;20567;-51
2022/05/14 00:13:48;;;;;;;6.97;4.10;;;15.50;81.60;;;;;;5071367;28;20922;-53
2022/05/14 00:16:15;;;;;;;10.50;4.63;;;15.60;81.90;;;;;;5071248;28;20902;-52
2022/05/14 00:18:43;;;;;;;8.73;4.37;;;15.50;82.20;;;;;;5070589;28;20622;-52
2022/05/14 00:21:10;;;;;;;6.73;4.07;;;15.70;82.50;;;;;;5071331;28;20491;-52
2022/05/14 00:23:39;;;;;;;5.33;4.27;;;15.80;82.50;;;;;;5053610;28;20951;-52
2022/05/14 00:26:06;;;;;;;6.93;3.97;;;15.90;82.90;;;;;;5071622;28;20436;-52
2022/05/14 00:28:33;;;;;;;9.50;3.77;;;15.70;82.80;;;;;;5070775;28;20501;-51
2022/05/14 00:31:00;;;;;;;7.43;3.77;;;16.10;83.30;;;;;;5052915;28;20445;-52
2022/05/14 00:33:27;;;;;;;7.40;3.90;;;15.30;82.50;;;;;;5071612;28;20941;-51
2022/05/14 00:35:53;;;;;;;10.20;4.27;;;15.40;82.90;;;;;;5053528;28;20457;-51
2022/05/14 00:38:20;;;;;;;9.57;4.20;;;15.50;82.90;;;;;;5071210;28;20431;-52
2022/05/14 00:40:55;;;;;;;7.93;5.00;;;15.60;83.20;;;;;;5071464;28;20461;-52
2022/05/14 00:43:22;;;;;;;8.07;4.50;;;15.60;83.30;;;;;;5053319;28;20969;-52
2022/05/14 00:45:54;;;;;;;6.53;4.17;;;15.60;83.30;;;;;;5053248;28;20448;-52
2022/05/14 00:48:21;;;;;;;8.40;4.70;;;15.60;83.00;;;;;;5071006;28;20494;-51
2022/05/14 00:50:51;;;;;;;10.23;4.20;;;15.10;83.10;;;;;;5052931;28;20458;-53
2022/05/14 00:53:22;;;;;;;5.40;3.50;;;15.90;84.20;;;;;;5071436;28;20914;-53
2022/05/14 00:55:53;;;;;;;6.13;4.13;;;15.70;84.20;;;;;;5071447;28;20421;-52
2022/05/14 00:58:28;;;;;;;5.77;4.00;;;16.10;84.70;;;;;;5071147;28;20406;-53
2022/05/14 01:00:55;;;;;;;6.37;4.20;;;15.50;84.20;;;;;;5053068;28;20449;-53
2022/05/14 01:03:23;;;;;;;7.07;3.93;;;15.80;85.40;;;;;;5071202;28;20429;-52
2022/05/14 01:05:50;;;;;;;6.93;3.80;;;15.30;84.10;;;;;;5053065;28;20513;-51
2022/05/14 01:08:17;;;;;;;7.23;3.90;;;15.50;84.60;;;;;;5053132;28;20546;-53
2022/05/14 01:10:46;;;;;;;12.27;4.17;;;15.40;84.30;;;;;;5052645;28;20460;-53
2022/05/14 01:13:15;;;;;;;9.03;5.13;;;15.80;84.70;;;;;;5052989;28;20479;-52
2022/05/14 01:15:46;;;;;;;8.67;5.03;;;15.60;84.40;;;;;;5052927;28;20446;-52
2022/05/14 01:18:13;;;;;;;7.90;4.10;;;15.90;84.80;;;;;;5053132;28;20540;-52
2022/05/14 01:20:40;;;;;;;4.17;3.50;;;15.50;84.30;;;;;;5070571;28;20430;-53
2022/05/14 01:23:20;;;;;;;6.97;5.00;;;15.70;84.50;;;;;;5071044;28;20948;-52
2022/05/14 01:28:43;;;;;;;6.20;3.93;;;15.80;84.60;;;;;;5073972;28;20559;-52
2022/05/14 01:31:10;;;;;;;9.50;4.27;;;15.20;83.90;;;;;;5074063;28;20434;-52
2022/05/14 01:33:37;;;;;;;3.90;3.50;;;15.30;84.10;;;;;;5056234;28;20445;-52
2022/05/14 01:36:06;;;;;;;5.60;4.23;;;15.40;84.10;;;;;;5074505;28;20430;-53
2022/05/14 01:38:33;;;;;;;5.30;4.20;;;15.70;84.40;;;;;;5055818;28;20461;-51
2022/05/14 01:41:01;;;;;;;9.40;4.70;;;15.90;85.30;;;;;;5056743;28;20491;-52
2022/05/14 01:43:28;;;;;;;11.83;5.30;;;15.80;84.60;;;;;;5056294;28;20507;-52
2022/05/14 01:45:55;;;;;;;6.27;4.20;;;15.20;84.00;;;;;;5056239;28;20442;-51
2022/05/14 01:48:22;;;;;;;8.87;5.20;;;15.70;84.20;;;;;;5056043;28;20486;-50
2022/05/14 01:50:49;;;;;;;15.53;5.33;;;15.70;84.90;;;;;;5055861;28;20447;-52
2022/05/14 01:53:16;;;;;;;5.50;4.03;;;15.70;84.80;;;;;;5055720;28;20957;-53
2022/05/14 01:55:43;;;;;;;8.17;4.30;;;15.90;85.20;;;;;;5055703;28;20470;-53
2022/05/14 02:01:00;;;;;;;11.97;4.40;;;16.10;85.40;;;;;;5055985;28;20500;-51
2022/05/14 02:03:27;;;;;;;6.17;4.17;;;15.20;84.50;;;;;;5055778;28;20499;-52
2022/05/14 02:05:53;;;;;;;8.63;4.00;;;15.60;85.10;;;;;;5055873;28;20442;-52
2022/05/14 02:08:20;;;;;;;8.47;4.70;;;15.70;85.20;;;;;;5055441;28;20477;-53
2022/05/14 02:10:47;;;;;;;6.20;4.50;;;15.80;85.60;;;;;;5055241;28;20449;-52
2022/05/14 02:13:18;;;;;;;7.93;4.50;;;15.70;85.80;;;;;;5073566;28;20434;-52
2022/05/14 02:15:45;;;;;;;5.40;4.10;;;15.60;85.80;;;;;;5073317;28;20770;-52
2022/05/14 02:18:13;;;;;;;9.10;5.03;;;;;;;;;;5055136;28;21006;-52
2022/05/14 02:20:39;;;;;;;9.50;4.60;;;15.50;85.00;;;;;;5055124;28;20499;-51
2022/05/14 02:23:07;;;;;;;9.63;4.73;;;15.80;86.00;;;;;;5055301;28;20449;-53
2022/05/14 02:25:35;;;;;;;7.10;4.50;;;15.70;86.00;;;;;;5055409;28;20448;-52
2022/05/14 02:28:01;;;;;;;6.77;3.63;;;15.40;85.60;;;;;;5055125;28;20872;-52
2022/05/14 02:30:29;;;;;;;6.27;4.00;;;15.50;85.60;;;;;;5054460;28;20473;-53
2022/05/14 02:32:56;;;;;;;9.50;4.50;;;15.90;86.00;;;;;;5073190;28;20464;-51
2022/05/14 02:35:23;;;;;;;7.80;4.77;;;15.40;85.30;;;;;;5054997;28;20537;-52
2022/05/14 02:37:49;;;;;;;7.47;4.27;;;15.90;85.90;;;;;;5073216;28;20608;-53
2022/05/14 02:40:16;;;;;;;9.90;4.60;;;16.00;85.80;;;;;;5072684;28;20445;-52
2022/05/14 02:42:43;;;;;;;6.97;5.07;;;15.50;85.10;;;;;;5072771;28;20444;-52
2022/05/14 02:45:11;;;;;;;6.57;4.67;;;15.30;84.90;;;;;;5054934;28;20468;-52
2022/05/14 02:47:39;;;;;;;9.40;4.27;;;15.70;85.20;;;;;;5054632;28;20530;-51
2022/05/14 02:50:07;;;;;;;6.37;4.00;;;15.80;85.40;;;;;;5054399;28;20462;-52
2022/05/14 02:52:34;;;;;;;11.73;4.07;;;15.70;85.30;;;;;;5072654;28;20430;-51
2022/05/14 02:55:02;;;;;;;8.30;4.70;;;15.80;85.40;;;;;;5072764;28;20425;-52
2022/05/14 02:57:28;;;;;;;5.97;3.63;;;15.20;84.70;;;;;;5072661;28;20426;-51
2022/05/14 02:59:55;;;;;;;9.33;4.60;;;15.70;85.40;;;;;;5072523;28;20798;-51
2022/05/14 03:02:21;;;;;;;10.63;4.43;;;15.90;85.50;;;;;;5072998;28;20433;-52
2022/05/14 03:04:49;;;;;;;8.50;3.97;;;15.40;85.00;;;;;;5072842;28;20900;-52
2022/05/14 03:07:17;;;;;;;5.60;3.70;;;15.30;84.90;;;;;;5054312;28;20491;-52
2022/05/14 03:09:45;;;;;;;7.67;4.17;;;15.10;84.70;;;;;;5072030;28;20446;-53
2022/05/14 03:12:14;;;;;;;9.80;4.43;;;15.50;85.50;;;;;;5054388;28;20872;-52
2022/05/14 03:14:41;;;;;;;7.53;4.13;;;15.40;85.50;;;;;;5054470;28;20625;-52
2022/05/14 03:17:09;;;;;;;13.77;5.10;;;15.20;85.60;;;;;;5054563;28;20540;-52
2022/05/14 03:19:36;;;;;;;9.40;4.10;;;15.30;85.80;;;;;;5053677;28;20489;-52
2022/05/14 03:22:04;;;;;;;9.33;4.10;;;15.60;86.50;;;;;;5054018;28;20449;-50
2022/05/14 03:24:31;;;;;;;5.83;4.50;;;15.00;86.00;;;;;;5054095;28;20481;-52
2022/05/14 03:26:59;;;;;;;7.63;4.20;;;15.50;87.00;;;;;;5072074;28;20430;-52
2022/05/14 03:29:26;;;;;;;6.47;4.00;;;14.50;85.90;;;;;;5053299;28;20478;-51
2022/05/14 03:31:52;;;;;;;8.90;4.43;;;15.20;87.00;;;;;;5053792;28;20442;-52
2022/05/14 03:34:19;;;;;;;7.03;3.90;;;15.20;87.30;;;;;;5053911;28;20619;-52
2022/05/14 03:36:45;;;;;;;10.30;3.87;;;14.70;87.10;;;;;;5071860;28;20486;-52
2022/05/14 03:39:13;;;;;;;7.67;3.90;;;15.10;87.70;;;;;;5071770;28;20453;-52
2022/05/14 03:41:40;;;;;;;8.50;4.23;;;15.00;87.50;;;;;;5053780;28;20814;-53
2022/05/14 03:44:07;;;;;;;14.33;4.27;;;14.90;87.50;;;;;;5071802;28;20461;-52
2022/05/14 03:46:34;;;;;;;5.30;3.60;;;14.40;87.30;;;;;;5053560;28;20446;-51
2022/05/14 03:49:01;;;;;;;7.20;4.13;;;14.60;87.60;;;;;;5052503;28;20492;-51
2022/05/14 03:51:28;;;;;;;11.57;5.80;;;14.90;88.00;;;;;;5071638;28;20437;-50
2022/05/14 03:53:55;;;;;;;6.03;4.10;;;14.80;87.90;;;;;;5053747;28;21017;-52
2022/05/14 03:56:23;;;;;;;9.83;4.27;;;14.80;88.20;;;;;;5053668;28;20462;-51
2022/05/14 03:58:50;;;;;;;11.77;5.20;;;14.70;88.00;;;;;;5053303;28;20472;-50
2022/05/14 04:01:17;;;;;;;11.30;4.73;;;15.10;88.60;;;;;;5071515;28;20922;-51
2022/05/14 04:03:45;;;;;;;10.20;5.13;;;15.00;88.50;;;;;;5053531;28;20490;-51
2022/05/14 04:06:12;;;;;;;10.97;4.63;;;15.30;89.70;;;;;;5071771;28;20967;-53
2022/05/14 04:08:39;;;;;;;15.07;4.40;;;15.60;89.30;;;;;;5071226;28;20477;-52
2022/05/14 04:11:07;;;;;;;10.63;4.60;;;15.30;88.70;;;;;;5053590;28;20675;-52
2022/05/14 04:13:36;;;;;;;5.90;4.83;;;15.30;88.50;;;;;;5071341;28;20839;-51
2022/05/14 04:16:03;;;;;;;8.30;4.57;;;15.20;88.10;;;;;;5071301;28;20441;-51
2022/05/14 04:18:30;;;;;;;9.10;4.33;;;15.40;87.10;;;;;;5053033;28;20537;-50
2022/05/14 04:20:59;;;;;;;6.03;4.13;;;15.50;87.80;;;;;;5053449;28;20542;-52
2022/05/14 04:23:28;;;;;;;8.57;4.37;;;15.50;87.50;;;;;;5053408;28;20446;-52
2022/05/14 04:25:55;;;;;;;6.57;4.00;;;15.90;87.60;;;;;;5053360;28;20451;-52
2022/05/14 04:28:24;;;;;;;6.27;4.37;;;16.10;86.50;;;;;;5052912;28;20506;-51
2022/05/14 04:30:53;;;;;;;5.70;4.37;;;15.80;86.80;;;;;;5053688;28;20883;-51
2022/05/14 04:33:21;;;;;;;7.60;3.80;;;16.20;86.90;;;;;;5053369;28;20540;-53
2022/05/14 04:35:48;;;;;;;6.43;3.87;;;16.50;87.00;;;;;;5053211;28;21000;-52
2022/05/14 04:38:15;;;;;;;6.30;3.60;;;16.40;85.50;;;;;;5052995;28;20804;-52
2022/05/14 04:40:44;;;;;;;7.47;4.10;;;15.80;85.50;;;;;;5052796;28;20452;-53
2022/05/14 04:43:12;;;;;;;8.53;3.63;;;16.50;86.10;;;;;;5053200;28;20970;-53
2022/05/14 04:45:43;;;;;;;6.97;3.80;;;16.20;85.40;;;;;;5053165;28;20446;-52
2022/05/14 04:48:13;;;;;;;10.03;3.60;;;16.20;85.10;;;;;;5052996;28;20473;-52
2022/05/14 04:50:40;;;;;;;9.03;3.97;;;16.00;84.60;;;;;;5053034;28;20442;-52
2022/05/14 04:53:08;;;;;;;10.40;4.23;;;16.40;84.70;;;;;;5071072;28;20525;-51
2022/05/14 04:55:35;;;;;;;5.10;3.63;;;17.10;85.30;;;;;;5071022;28;20879;-53
2022/05/14 04:58:01;;;;;;;9.97;3.97;;;16.60;84.60;;;;;;5053209;28;20458;-52
2022/05/14 05:00:28;;;;;;;8.93;3.43;;;17.10;84.90;;;;;;5055703;28;20539;-53
2022/05/14 05:05:40;;;;;;;7.50;4.60;;;16.90;84.20;;;;;;5057093;28;20519;-53
2022/05/14 05:08:07;;;;;;;6.87;4.40;;;16.70;83.50;;;;;;5056581;28;20557;-53
2022/05/14 05:10:34;;;;;;;4.70;3.20;;;17.20;83.80;;;;;;5056435;28;20559;-52
2022/05/14 05:13:01;;;;;;;8.07;3.70;;;17.10;83.40;;;;;;5074955;28;20940;-51
2022/05/14 05:15:27;;;;;;;7.40;4.20;;;16.90;82.80;;;;;;5074861;28;20774;-52
2022/05/14 05:17:54;;;;;;;7.70;4.20;;;16.90;82.40;;;;;;5074644;28;20443;-52
2022/05/14 05:20:21;;;;;;;4.90;3.47;;;17.40;82.60;;;;;;5074106;28;20547;-52
2022/05/14 05:22:49;;;;;;;7.33;4.13;;;17.20;82.00;;;;;;5056519;28;20454;-52
2022/05/14 05:25:16;;;;;;;11.07;4.47;;;16.90;81.40;;;;;;5074366;28;20433;-52
2022/05/14 05:27:43;;;;;;;7.90;4.60;;;16.90;81.00;;;;;;5074442;28;20439;-52
2022/05/14 05:30:10;;;;;;;11.40;4.40;;;17.10;82.10;;;;;;5073844;28;20488;-52
2022/05/14 05:32:37;;;;;;;6.77;4.20;;;17.40;81.40;;;;;;5074469;28;20897;-52
2022/05/14 05:35:05;;;;;;;8.33;3.73;;;16.80;80.50;;;;;;5073920;28;20442;-53
2022/05/14 05:37:32;;;;;;;6.23;4.00;;;17.10;80.50;;;;;;5074244;28;20439;-53
2022/05/14 05:40:00;;;;;;;7.40;3.57;;;16.40;79.40;;;;;;5073955;28;20953;-51
2022/05/14 05:42:26;;;;;;;9.50;3.70;;;17.50;80.40;;;;;;5074123;28;20433;-52
2022/05/14 05:44:54;;;;;;;8.10;3.43;;;17.60;80.40;;;;;;5074024;28;20440;-52
2022/05/14 05:47:20;;;;;;;8.60;4.00;;;17.70;80.40;;;;;;5073841;28;20534;-52
2022/05/14 05:49:47;;;;;;;10.30;4.10;;;17.40;79.90;;;;;;5073586;28;20488;-52
2022/05/14 05:52:13;;;;;;;8.93;3.77;;;17.80;80.30;;;;;;5074080;28;20432;-53
2022/05/14 05:57:37;;;;;;;8.53;3.77;;;18.30;80.30;;;;;;5073816;28;20517;-52
2022/05/14 06:00:05;;;;;;;8.33;3.63;;;17.90;79.20;;;;;;5073370;28;20446;-53
2022/05/14 06:02:38;;;;;;;9.20;4.13;;;18.00;79.10;;;;;;5074077;28;20450;-53
2022/05/14 06:05:06;;;;;;;22.03;5.70;;;18.20;78.50;;;;;;5074005;28;20435;-52
2022/05/14 06:07:33;;;;;;;9.70;3.70;;;18.40;79.00;;;;;;5073935;28;20550;-52
2022/05/14 06:10:01;;;;;;;9.13;3.53;;;18.50;77.80;;;;;;5073101;28;20480;-53
2022/05/14 06:12:27;;;;;;;8.33;3.90;;;18.30;76.90;;;;;;5072978;28;20438;-52
2022/05/14 06:14:55;;;;;;;8.30;3.70;;;18.60;77.50;;;;;;5073435;28;20442;-52
2022/05/14 06:17:22;;;;;;;8.17;4.00;;;18.30;77.50;;;;;;5073480;28;20430;-52
2022/05/14 06:19:49;;;;;;;8.03;4.10;;;18.10;77.90;;;;;;5072985;28;20559;-53
2022/05/14 06:22:16;;;;;;;7.17;3.43;;;18.00;78.00;;;;;;5073461;28;20447;-52
2022/05/14 06:24:42;;;;;;;14.80;4.03;;;17.80;78.20;;;;;;5073444;28;20439;-52
2022/05/14 06:27:09;;;;;;;10.63;3.60;;;17.60;78.50;;;;;;5073193;28;20440;-52
2022/05/14 06:29:36;;;;;;;8.60;3.57;;;17.80;78.90;;;;;;5072733;28;20524;-52
2022/05/14 06:32:04;;;;;;;9.17;3.60;;;17.70;78.90;;;;;;5073497;28;20435;-53
2022/05/14 06:34:31;;;;;;;12.17;4.33;;;17.80;79.00;;;;;;5073201;28;20434;-53
2022/05/14 06:36:58;;;;;;;9.77;4.10;;;17.90;78.70;;;;;;5073446;28;20440;-52
2022/05/14 06:39:27;;;;;;;5.93;3.47;;;18.00;78.30;;;;;;5054866;28;20583;-50
2022/05/14 06:41:53;;;;;;;12.53;4.10;;;18.20;78.30;;;;;;5072953;28;20428;-54
2022/05/14 06:44:20;;;;;;;12.00;4.70;;;18.70;78.50;;;;;;5073186;28;20550;-52
2022/05/14 06:46:47;;;;;;;7.07;3.77;;;18.10;77.50;;;;;;5072853;28;20447;-53
2022/05/14 06:49:15;;;;;;;8.80;3.40;;;18.30;77.60;;;;;;5072380;28;20798;-54
2022/05/14 06:51:42;;;;;;;6.20;3.03;;;18.40;77.50;;;;;;5072778;28;20436;-51
2022/05/14 06:54:11;;;;;;;9.13;3.93;;;18.60;77.80;;;;;;5072692;28;20472;-51
2022/05/14 06:56:42;;;;;;;8.13;3.90;;;18.10;77.20;;;;;;5072673;28;20490;-50
2022/05/14 06:59:10;;;;;;;5.60;3.80;;;18.60;77.60;;;;;;5072330;28;20973;-50
2022/05/14 07:01:39;;;;;;;8.17;3.93;;;18.60;77.70;;;;;;5072908;28;20433;-51
2022/05/14 07:06:55;;;;;;;12.03;3.87;;;19.30;78.30;;;;;;5072666;28;20444;-51
2022/05/14 07:09:26;;;;;;;11.13;3.50;;;18.60;77.50;;;;;;5072283;28;20572;-51
2022/05/14 07:11:54;;;;;;;12.43;4.63;;;18.70;77.50;;;;;;5072639;28;20429;-50
2022/05/14 07:14:21;;;;;;;9.40;4.17;;;19.30;78.30;;;;;;5071939;28;20471;-51
2022/05/14 07:16:50;;;;;;;6.00;3.90;;;18.80;77.90;;;;;;5072070;28;20433;-51
2022/05/14 07:19:17;;;;;;;10.50;5.53;;;19.00;77.90;;;;;;5071974;28;20491;-51
2022/05/14 07:21:46;;;;;;;11.83;5.00;;;18.80;77.50;;;;;;5072044;28;20459;-51
2022/05/14 07:24:21;;;;;;;6.47;4.00;;;19.10;77.50;;;;;;5071249;28;20941;-51
2022/05/14 07:26:51;;;;;;;12.40;4.67;;;19.00;77.40;;;;;;5072221;28;20440;-51
2022/05/14 07:29:20;;;;;;;6.30;3.63;;;19.10;77.50;;;;;;5071303;28;20488;-53
2022/05/14 07:31:48;;;;;;;9.83;3.80;;;18.80;76.80;;;;;;5071653;28;20477;-51
2022/05/14 07:34:15;;;;;;;10.83;4.00;;;18.80;76.80;;;;;;5071827;28;20781;-52
2022/05/14 07:36:46;;;;;;;9.93;4.00;;;19.00;76.80;;;;;;5071532;28;20482;-51
2022/05/14 07:39:15;;;;;;;13.77;4.00;;;19.30;77.10;;;;;;5071216;28;20450;-51
2022/05/14 07:41:44;;;;;;;11.90;4.67;;;19.50;77.20;;;;;;5071666;28;20442;-52
2022/05/14 07:44:13;;;;;;;9.53;3.70;;;19.30;76.90;;;;;;5071475;28;20479;-52
2022/05/14 07:46:41;;;;;;;8.73;4.10;;;19.50;77.10;;;;;;5053544;28;20805;-51
2022/05/14 07:49:11;;;;;;;8.97;4.33;;;19.90;77.60;;;;;;5071318;28;20562;-51
2022/05/14 07:51:38;;;;;;;13.17;4.33;;;19.30;76.70;;;;;;5071634;28;20433;-52
2022/05/14 07:54:06;;;;;;;9.80;4.40;;;19.60;77.30;;;;;;5071230;28;20887;-52
2022/05/14 07:56:34;;;;;;;10.93;4.73;;;19.60;77.30;;;;;;5071421;28;20918;-52
2022/05/14 07:59:01;;;;;;;7.83;4.00;;;19.80;77.40;;;;;;5070537;28;20453;-52
2022/05/14 08:01:28;;;;;;;8.00;4.00;;;19.40;76.60;;;;;;5071071;28;20564;-51
2022/05/14 08:03:55;;;;;;;9.27;5.70;;;19.80;76.90;;;;;;5053427;28;20482;-52
2022/05/14 08:06:22;;;;;;;13.60;4.50;;;20.20;76.70;;;;;;5071350;28;20768;-52
2022/05/14 08:08:49;;;;;;;11.63;4.43;;;20.50;76.60;;;;;;5070920;28;20880;-52
2022/05/14 08:11:15;;;;;;;9.40;4.00;;;20.30;75.80;;;;;;5071383;28;20485;-52
2022/05/14 08:13:45;;;;;;;10.10;4.00;;;19.70;75.10;;;;;;5071120;28;20435;-52
2022/05/14 08:16:11;;;;;;;14.23;6.90;;;20.30;75.40;;;;;;5071395;28;20443;-53
2022/05/14 08:18:38;;;;;;;7.40;3.63;;;20.30;75.10;;;;;;5070729;28;20455;-51
2022/05/14 08:26:35;;;;;;;6.97;3.97;;;20.40;74.40;;;;;;5071385;28;20441;-51
2022/05/14 08:29:03;;;;;;;11.37;4.10;;;20.40;74.10;;;;;;5070795;28;20533;-53
2022/05/14 08:31:29;;;;;;;9.50;5.03;;;20.50;74.10;;;;;;5071122;28;20435;-53
2022/05/14 08:33:56;;;;;;;17.00;4.60;;;20.40;73.60;;;;;;5072950;28;20924;-53
2022/05/14 08:36:23;;;;;;;10.47;4.00;;;20.40;73.50;;;;;;5077372;28;20520;-52
2022/05/14 08:38:50;;;;;;;8.30;4.30;;;20.70;73.60;;;;;;5077143;28;20762;-51
2022/05/14 08:41:18;;;;;;;8.37;3.43;;;20.80;73.10;;;;;;5077734;28;20426;-52
2022/05/14 08:43:48;;;;;;;8.77;3.60;;;20.50;72.20;;;;;;5059619;28;20978;-52
2022/05/14 08:46:24;;;;;;;8.80;4.03;;;21.20;72.80;;;;;;5077798;28;20440;-51
2022/05/14 08:48:53;;;;;;;10.63;4.30;;;21.20;72.40;;;;;;5077043;28;20484;-52
2022/05/14 08:51:24;;;;;;;9.90;3.47;;;21.00;71.50;;;;;;5077554;28;20428;-53
2022/05/14 08:53:51;;;;;;;5.90;3.70;;;21.20;71.60;;;;;;5078011;28;20651;-52
2022/05/14 08:56:27;;;;;;;10.07;3.47;;;20.90;70.90;;;;;;5077675;28;20437;-52
2022/05/14 08:59:17;;;;;;;9.20;3.60;;;21.40;70.80;;;;;;5077032;28;20561;-52
2022/05/14 09:01:47;;;;;;;15.60;4.20;;;21.30;70.70;;;;;;5077674;28;20426;-52
2022/05/14 09:04:17;;;;;;;11.97;3.80;;;21.40;70.20;;;;;;5077428;28;20436;-52
2022/05/14 09:06:45;;;;;;;12.23;3.90;;;21.20;69.60;;;;;;5060097;28;20451;-53
2022/05/14 09:09:13;;;;;;;10.27;4.40;;;20.70;69.40;;;;;;5077342;28;20465;-53
2022/05/14 09:11:43;;;;;;;12.23;4.53;;;20.70;69.70;;;;;;5077449;28;20443;-53
2022/05/14 09:14:20;;;;;;;12.60;4.10;;;21.20;70.50;;;;;;5078068;28;20575;-52
2022/05/14 09:16:50;;;;;;;13.50;4.00;;;20.70;69.80;;;;;;5077456;28;20432;-52
2022/05/14 09:19:19;;;;;;;10.43;3.90;;;21.10;69.70;;;;;;5076778;28;20439;-53
2022/05/14 09:21:51;;;;;;;6.80;4.33;;;21.20;69.90;;;;;;5077111;28;20443;-53
2022/05/14 09:24:24;;;;;;;10.77;4.70;;;21.50;69.70;;;;;;5077055;28;20463;-53
2022/05/14 09:26:52;;;;;;;7.50;3.87;;;21.60;69.40;;;;;;5077049;28;20959;-53
2022/05/14 09:29:25;;;;;;;10.27;3.90;;;21.20;69.00;;;;;;5058625;28;20851;-53
2022/05/14 09:31:58;;;;;;;9.80;3.80;;;21.30;68.00;;;;;;5076905;28;20433;-52
2022/05/14 09:34:26;;;;;;;10.30;3.07;;;20.90;67.30;;;;;;5077116;28;20444;-51
2022/05/14 09:37:06;;;;;;;13.30;3.53;;;21.20;67.90;;;;;;5077276;28;20782;-53
2022/05/14 09:39:33;;;;;;;6.37;3.33;;;21.40;67.40;;;;;;5077180;28;20456;-52
2022/05/14 09:42:01;;;;;;;15.10;4.60;;;21.30;66.40;;;;;;5077556;28;20715;-51
2022/05/14 09:44:30;;;;;;;13.20;6.67;;;21.00;65.10;;;;;;5076950;28;20436;-52
2022/05/14 09:47:08;;;;;;;6.57;3.40;;;21.30;65.30;;;;;;5073028;28;20447;-52
2022/05/14 09:49:39;;;;;;;6.57;3.10;;;21.30;63.70;;;;;;5073860;28;20963;-53
2022/05/14 09:52:08;;;;;;;10.63;3.30;;;21.20;63.80;;;;;;5073805;28;20441;-52
2022/05/14 09:54:41;;;;;;;8.00;3.67;;;21.10;63.80;;;;;;5073742;28;20523;-52
2022/05/14 09:57:38;;;;;;;9.20;3.53;;;20.90;63.00;;;;;;5073615;28;20445;-53
2022/05/14 10:00:13;;;;;;;10.50;3.60;;;21.20;62.20;;;;;;5055517;28;20943;-52
2022/05/14 10:02:55;;;;;;;8.03;3.00;;;21.00;61.70;;;;;;5073788;28;20433;-51
2022/05/14 10:05:34;;;;;;;11.97;3.83;;;20.90;60.30;;;;;;5073552;28;20450;-52
2022/05/14 10:08:07;;;;;;;5.97;2.97;;;20.90;60.30;;;;;;5073498;28;20493;-51
2022/05/14 10:10:43;;;;;;;10.07;4.73;;;20.60;60.00;;;;;;5073041;28;20839;-52
2022/05/14 10:13:17;;;;;;;11.80;4.20;;;20.90;60.10;;;;;;5073617;28;20431;-52
2022/05/14 10:15:47;;;;;;;8.43;3.30;;;21.30;60.70;;;;;;5073120;28;20799;-52
2022/05/14 10:18:35;;;;;;;7.93;3.67;;;21.20;60.10;;;;;;5072949;28;20498;-53
2022/05/14 10:21:08;;;;;;;7.70;3.40;;;21.20;58.60;;;;;;5072992;28;20459;-52
2022/05/14 10:26:59;;;;;;;9.30;3.37;;;21.10;59.10;;;;;;5073316;28;20431;-53
2022/05/14 10:29:37;;;;;;;9.33;3.10;;;21.00;59.50;;;;;;5070408;22;20491;-46
2022/05/14 10:32:07;;;;;;;10.00;3.00;;;21.10;59.30;;;;;;5010714;28;20500;-43
2022/05/14 10:34:47;;;;;;;9.93;3.70;;;21.10;59.20;;;;;;5010548;28;20466;-44
2022/05/14 10:37:24;;;;;;;11.40;4.30;;;21.30;58.90;;;;;;5010994;28;20431;-43
2022/05/14 10:39:57;;;;;;;10.97;4.03;;;21.30;59.00;;;;;;5010872;28;20986;-43
2022/05/14 10:42:34;;;;;;;6.67;3.90;;;21.00;58.80;;;;;;5011462;28;20928;-43
2022/05/14 10:45:07;;;;;;;10.30;4.17;;;21.20;58.20;;;;;;5010953;28;20442;-43
2022/05/14 10:47:34;;;;;;;13.03;3.67;;;21.40;58.50;;;;;;5009289;28;20447;-45
2022/05/14 10:50:09;;;;;;;9.80;4.53;;;21.40;58.50;;;;;;5009680;28;20490;-42
2022/05/14 10:52:39;;;;;;;10.10;3.00;;;21.30;58.20;;;;;;5010116;28;20439;-45
2022/05/14 10:55:15;;;;;;;9.53;3.97;;;21.50;58.60;;;;;;5010364;28;20605;-43
2022/05/14 10:57:46;;;;;;;12.07;3.73;;;21.30;58.40;;;;;;5010198;28;20436;-43
2022/05/14 11:00:38;;;;;;;8.20;3.40;;;21.90;58.70;;;;;;5008634;28;20483;-43
2022/05/14 11:03:11;;;;;;;8.90;2.97;;;21.90;58.10;;;;;;5010726;28;20428;-43
2022/05/14 11:05:52;;;;;;;8.37;3.30;;;22.00;58.10;;;;;;5010480;28;20447;-43
2022/05/14 11:08:29;;;;;;;9.00;3.87;;;22.40;58.00;;;;;;5009341;28;20440;-44
2022/05/14 11:11:08;;;;;;;9.07;3.60;;;22.30;57.60;;;;;;5009876;28;20566;-44
2022/05/14 11:13:36;;;;;;;10.40;3.17;;;22.30;57.90;;;;;;5009662;28;20438;-44
2022/05/14 11:16:06;;;;;;;9.27;3.70;;;22.30;57.90;;;;;;5009551;28;20481;-48
2022/05/14 11:18:45;;;;;;;12.30;3.70;;;22.00;57.50;;;;;;5008845;28;20474;-44
2022/05/14 11:21:14;;;;;;;8.33;3.60;;;22.40;57.10;;;;;;5009527;28;20434;-43
2022/05/14 11:23:52;;;;;;;9.30;3.10;;;22.00;57.30;;;;;;5009760;28;20436;-43
2022/05/14 11:26:20;;;;;;;14.23;4.50;;;22.50;57.40;;;;;;5009650;28;20543;-43
2022/05/14 11:28:58;;;;;;;11.80;4.53;;;22.50;57.00;;;;;;5007662;28;20738;-43
2022/05/14 11:31:29;;;;;;;6.23;3.37;;;22.40;57.50;;;;;;5009016;28;20480;-43
2022/05/14 11:33:59;;;;;;;9.40;3.83;;;22.60;57.80;;;;;;5009383;28;20436;-44
2022/05/14 11:36:30;;;;;;;12.97;4.80;;;22.60;57.60;;;;;;5009360;28;20929;-43
2022/05/14 11:39:23;;;;;;;9.00;3.40;;;22.60;57.30;;;;;;5008725;28;20473;-44
2022/05/14 11:41:51;;;;;;;9.30;4.00;;;22.70;57.40;;;;;;5009591;28;20426;-45
2022/05/14 11:44:31;;;;;;;8.70;3.73;;;22.40;57.40;;;;;;5009359;28;20450;-44
2022/05/14 11:46:58;;;;;;;6.80;3.57;;;22.60;57.60;;;;;;5009546;28;20445;-44
2022/05/14 11:49:29;;;;;;;13.30;4.10;;;22.40;57.50;;;;;;5008442;28;20458;-44
2022/05/14 11:52:09;;;;;;;11.13;3.80;;;22.40;58.00;;;;;;5009040;28;20474;-45
2022/05/14 11:54:41;;;;;;;15.83;4.10;;;22.30;57.90;;;;;;5009174;28;20441;-45
2022/05/14 11:57:13;;;;;;;7.40;3.53;;;22.00;57.80;;;;;;5008940;28;20447;-43
2022/05/14 11:59:47;;;;;;;11.33;4.50;;;22.50;58.00;;;;;;5008848;28;20772;-45
2022/05/14 12:02:20;;;;;;;12.43;4.63;;;22.40;57.90;;;;;;5008821;28;20432;-45
2022/05/14 12:04:54;;;;;;;8.00;3.90;;;22.50;57.90;;;;;;5009356;28;20437;-43
2022/05/14 12:07:38;;;;;;;10.90;4.67;;;22.80;58.10;;;;;;5009267;28;20803;-44
2022/05/14 12:10:17;;;;;;;8.33;3.80;;;22.60;57.30;;;;;;5008129;28;20778;-43
2022/05/14 12:12:52;;;;;;;8.53;3.73;;;22.50;56.90;;;;;;5009189;28;20425;-42
2022/05/14 12:15:24;;;;;;;11.13;3.97;;;22.90;57.30;;;;;;5008592;28;20441;-41
2022/05/14 12:17:53;;;;;;;14.50;4.90;;;22.30;57.00;;;;;;5009143;28;20926;-43
2022/05/14 12:20:22;;;;;;;9.90;4.17;;;22.00;56.90;;;;;;5008340;28;20460;-42
2022/05/14 12:22:55;;;;;;;14.70;4.73;;;22.50;57.30;;;;;;5008604;28;20801;-44
2022/05/14 12:25:21;;;;;;;7.97;3.47;;;22.50;57.50;;;;;;5009037;28;20471;-43
2022/05/14 12:27:50;;;;;;;9.10;3.97;;;22.10;57.20;;;;;;5008494;28;20440;-42
2022/05/14 12:33:12;;;;;;;11.30;4.10;;;22.10;57.70;;;;;;5009062;28;20429;-45
2022/05/14 12:35:43;;;;;;;6.17;3.27;;;22.00;57.70;;;;;;5008369;28;20486;-42
2022/05/14 12:38:13;;;;;;;9.23;4.03;;;22.00;57.80;;;;;;5007999;28;20436;-43
2022/05/14 12:40:40;;;;;;;10.10;4.40;;;21.90;57.70;;;;;;5007667;28;20994;-43
2022/05/14 12:43:08;;;;;;;8.37;4.33;;;22.20;57.90;;;;;;5006835;28;20456;-43
2022/05/14 12:45:37;;;;;;;13.10;4.13;;;22.20;57.60;;;;;;5008821;28;20443;-44
2022/05/14 12:48:05;;;;;;;15.03;5.63;;;22.00;57.30;;;;;;5008268;28;20442;-41
2022/05/14 12:50:33;;;;;;;11.73;4.03;;;22.30;57.50;;;;;;5007781;28;20483;-43
2022/05/14 12:53:02;;;;;;;12.70;5.50;;;22.50;57.40;;;;;;5008918;28;20489;-42
2022/05/14 12:55:36;;;;;;;12.00;4.90;;;22.60;57.20;;;;;;5006941;28;20461;-42
2022/05/14 12:58:04;;;;;;;12.90;4.10;;;22.70;57.20;;;;;;5008345;28;20440;-44
2022/05/14 13:00:36;;;;;;;8.97;3.77;;;22.70;57.10;;;;;;5008386;28;20478;-41
2022/05/14 13:03:09;;;;;;;10.80;3.97;;;22.80;56.50;;;;;;5008533;28;20433;-42
2022/05/14 13:05:39;;;;;;;9.20;4.13;;;22.60;56.70;;;;;;5006887;28;20942;-43
2022/05/14 13:08:09;;;;;;;11.40;3.90;;;22.90;57.00;;;;;;5008021;28;20807;-44
2022/05/14 13:10:38;;;;;;;8.77;3.70;;;22.60;56.50;;;;;;5007460;28;20480;-45
2022/05/14 13:13:08;;;;;;;8.00;3.43;;;22.80;56.90;;;;;;5008474;28;20439;-42
2022/05/14 13:15:37;;;;;;;9.17;4.10;;;22.60;56.70;;;;;;5008376;28;20552;-42
2022/05/14 13:18:12;;;;;;;10.13;4.57;;;22.80;56.90;;;;;;5008112;28;20460;-44
2022/05/14 13:20:39;;;;;;;8.23;3.63;;;22.60;56.60;;;;;;5006509;28;20470;-42
2022/05/14 13:23:13;;;;;;;17.53;4.80;;;22.50;56.90;;;;;;5011298;28;20771;-44